sensor_id;sensor_type;location;lat;lon;timestamp;temperature;humidity
10270;DHT22;70826;50.930;5.334;2024-01-07T00:01:14;20.30;62.90
10270;DHT22;70826;50.930;5.334;2024-01-07T00:03:45;20.30;62.90
10270;DHT22;70826;50.930;5.334;2024-01-07T00:06:10;20.30;62.90
10270;DHT22;70826;50.930;5.334;2024-01-07T00:08:38;20.30;62.90
10270;DHT22;70826;50.930;5.334;2024-01-07T00:11:06;20.30;63.00
10270;DHT22;70826;50.930;5.334;2024-01-07T00:13:31;20.30;63.00
10270;DHT22;70826;50.930;5.334;2024-01-07T00:15:59;20.30;62.90
10270;DHT22;70826;50.930;5.334;2024-01-07T00:18:25;20.30;62.90
10270;DHT22;70826;50.930;5.334;2024-01-07T00:20:53;20.30;62.90
10270;DHT22;70826;50.930;5.334;2024-01-07T00:23:21;20.30;63.00
10270;DHT22;70826;50.930;5.334;2024-01-07T00:25:49;20.30;63.00
10270;DHT22;70826;50.930;5.334;2024-01-07T00:28:18;20.30;62.90
10270;DHT22;70826;50.930;5.334;2024-01-07T00:30:48;20.30;62.90
10270;DHT22;70826;50.930;5.334;2024-01-07T00:33:14;20.30;62.90
10270;DHT22;70826;50.930;5.334;2024-01-07T00:35:39;20.30;62.90
10270;DHT22;70826;50.930;5.334;2024-01-07T00:38:05;20.30;63.60
10270;DHT22;70826;50.930;5.334;2024-01-07T00:40:33;20.30;62.90
10270;DHT22;70826;50.930;5.334;2024-01-07T00:43:00;20.30;62.90
10270;DHT22;70826;50.930;5.334;2024-01-07T00:45:28;20.30;62.90
10270;DHT22;70826;50.930;5.334;2024-01-07T00:47:56;20.30;62.90
10270;DHT22;70826;50.930;5.334;2024-01-07T00:50:28;20.30;63.00
10270;DHT22;70826;50.930;5.334;2024-01-07T00:52:59;20.30;62.90
10270;DHT22;70826;50.930;5.334;2024-01-07T00:55:29;20.30;62.90
10270;DHT22;70826;50.930;5.334;2024-01-07T00:57:57;20.30;62.90
10270;DHT22;70826;50.930;5.334;2024-01-07T01:00:23;20.30;63.00
10270;DHT22;70826;50.930;5.334;2024-01-07T01:02:48;20.30;62.90
10270;DHT22;70826;50.930;5.334;2024-01-07T01:05:19;20.30;63.00
10270;DHT22;70826;50.930;5.334;2024-01-07T01:07:44;20.30;63.00
10270;DHT22;70826;50.930;5.334;2024-01-07T01:10:10;20.30;63.00
10270;DHT22;70826;50.930;5.334;2024-01-07T01:12:38;20.30;63.00
10270;DHT22;70826;50.930;5.334;2024-01-07T01:15:08;20.30;62.90
10270;DHT22;70826;50.930;5.334;2024-01-07T01:17:34;20.30;62.90
10270;DHT22;70826;50.930;5.334;2024-01-07T01:20:02;20.30;62.90
10270;DHT22;70826;50.930;5.334;2024-01-07T01:22:33;20.30;62.90
10270;DHT22;70826;50.930;5.334;2024-01-07T01:25:01;20.30;62.90
10270;DHT22;70826;50.930;5.334;2024-01-07T01:27:28;20.30;62.90
10270;DHT22;70826;50.930;5.334;2024-01-07T01:29:54;20.30;62.90
10270;DHT22;70826;50.930;5.334;2024-01-07T01:32:24;20.30;62.90
10270;DHT22;70826;50.930;5.334;2024-01-07T01:34:49;20.30;62.90
10270;DHT22;70826;50.930;5.334;2024-01-07T01:37:15;20.30;63.50
10270;DHT22;70826;50.930;5.334;2024-01-07T01:39:43;20.30;62.90
10270;DHT22;70826;50.930;5.334;2024-01-07T01:42:11;20.30;62.90
10270;DHT22;70826;50.930;5.334;2024-01-07T01:44:37;20.30;62.90
10270;DHT22;70826;50.930;5.334;2024-01-07T01:47:09;20.30;62.90
10270;DHT22;70826;50.930;5.334;2024-01-07T01:49:35;20.30;62.90
10270;DHT22;70826;50.930;5.334;2024-01-07T01:52:04;20.30;62.90
10270;DHT22;70826;50.930;5.334;2024-01-07T01:54:30;20.30;63.50
10270;DHT22;70826;50.930;5.334;2024-01-07T01:56:58;20.30;62.90
10270;DHT22;70826;50.930;5.334;2024-01-07T01:59:28;20.30;62.90
10270;DHT22;70826;50.930;5.334;2024-01-07T02:01:56;20.30;62.80
10270;DHT22;70826;50.930;5.334;2024-01-07T02:04:24;20.30;62.80
10270;DHT22;70826;50.930;5.334;2024-01-07T02:06:50;20.30;62.80
10270;DHT22;70826;50.930;5.334;2024-01-07T02:09:20;20.30;62.80
10270;DHT22;70826;50.930;5.334;2024-01-07T02:12:08;20.30;62.80
10270;DHT22;70826;50.930;5.334;2024-01-07T02:14:37;20.30;62.80
10270;DHT22;70826;50.930;5.334;2024-01-07T02:17:05;20.30;62.80
10270;DHT22;70826;50.930;5.334;2024-01-07T02:19:31;20.30;62.70
10270;DHT22;70826;50.930;5.334;2024-01-07T02:21:59;20.30;62.80
10270;DHT22;70826;50.930;5.334;2024-01-07T02:24:29;20.30;62.70
10270;DHT22;70826;50.930;5.334;2024-01-07T02:26:56;20.30;62.70
10270;DHT22;70826;50.930;5.334;2024-01-07T02:29:29;20.30;62.80
10270;DHT22;70826;50.930;5.334;2024-01-07T02:31:59;20.30;62.70
10270;DHT22;70826;50.930;5.334;2024-01-07T02:34:28;20.30;63.30
10270;DHT22;70826;50.930;5.334;2024-01-07T02:36:58;20.30;62.70
10270;DHT22;70826;50.930;5.334;2024-01-07T02:39:26;20.30;62.70
10270;DHT22;70826;50.930;5.334;2024-01-07T02:41:56;20.30;62.60
10270;DHT22;70826;50.930;5.334;2024-01-07T02:44:22;20.30;62.60
10270;DHT22;70826;50.930;5.334;2024-01-07T02:46:48;20.30;62.60
10270;DHT22;70826;50.930;5.334;2024-01-07T02:49:14;20.30;62.60
10270;DHT22;70826;50.930;5.334;2024-01-07T02:51:39;20.30;62.60
10270;DHT22;70826;50.930;5.334;2024-01-07T02:54:05;20.30;62.60
10270;DHT22;70826;50.930;5.334;2024-01-07T02:56:33;20.30;63.20
10270;DHT22;70826;50.930;5.334;2024-01-07T02:58:59;20.30;62.60
10270;DHT22;70826;50.930;5.334;2024-01-07T03:01:24;20.30;62.60
10270;DHT22;70826;50.930;5.334;2024-01-07T03:03:50;20.30;62.60
10270;DHT22;70826;50.930;5.334;2024-01-07T03:06:20;20.30;62.50
10270;DHT22;70826;50.930;5.334;2024-01-07T03:08:50;20.30;62.50
10270;DHT22;70826;50.930;5.334;2024-01-07T03:11:15;20.30;62.50
10270;DHT22;70826;50.930;5.334;2024-01-07T03:13:41;20.30;62.50
10270;DHT22;70826;50.930;5.334;2024-01-07T03:16:22;20.30;62.50
10270;DHT22;70826;50.930;5.334;2024-01-07T03:18:48;20.20;62.40
10270;DHT22;70826;50.930;5.334;2024-01-07T03:21:21;20.30;62.40
10270;DHT22;70826;50.930;5.334;2024-01-07T03:23:47;20.30;62.40
10270;DHT22;70826;50.930;5.334;2024-01-07T03:26:13;20.30;62.50
10270;DHT22;70826;50.930;5.334;2024-01-07T03:28:39;20.30;62.40
10270;DHT22;70826;50.930;5.334;2024-01-07T03:31:13;20.30;62.40
10270;DHT22;70826;50.930;5.334;2024-01-07T03:33:40;20.30;62.40
10270;DHT22;70826;50.930;5.334;2024-01-07T03:36:13;20.30;62.40
10270;DHT22;70826;50.930;5.334;2024-01-07T03:38:40;20.20;62.30
10270;DHT22;70826;50.930;5.334;2024-01-07T03:41:06;20.30;62.40
10270;DHT22;70826;50.930;5.334;2024-01-07T03:43:34;20.30;62.40
10270;DHT22;70826;50.930;5.334;2024-01-07T03:46:02;20.30;62.40
10270;DHT22;70826;50.930;5.334;2024-01-07T03:48:30;20.30;62.30
10270;DHT22;70826;50.930;5.334;2024-01-07T03:50:56;20.20;62.30
10270;DHT22;70826;50.930;5.334;2024-01-07T03:53:25;20.30;62.30
10270;DHT22;70826;50.930;5.334;2024-01-07T03:55:56;20.20;62.30
10270;DHT22;70826;50.930;5.334;2024-01-07T03:58:21;20.30;62.40
10270;DHT22;70826;50.930;5.334;2024-01-07T04:00:47;20.20;62.30
10270;DHT22;70826;50.930;5.334;2024-01-07T04:03:15;20.20;62.30
10270;DHT22;70826;50.930;5.334;2024-01-07T04:05:41;20.20;62.90
10270;DHT22;70826;50.930;5.334;2024-01-07T04:08:09;20.20;62.30
10270;DHT22;70826;50.930;5.334;2024-01-07T04:10:35;20.20;62.30
10270;DHT22;70826;50.930;5.334;2024-01-07T04:13:04;20.20;62.30
10270;DHT22;70826;50.930;5.334;2024-01-07T04:15:30;20.20;62.20
10270;DHT22;70826;50.930;5.334;2024-01-07T04:18:03;20.20;62.20
10270;DHT22;70826;50.930;5.334;2024-01-07T04:20:29;20.20;62.20
10270;DHT22;70826;50.930;5.334;2024-01-07T04:22:58;20.30;62.30
10270;DHT22;70826;50.930;5.334;2024-01-07T04:25:28;20.20;62.20
10270;DHT22;70826;50.930;5.334;2024-01-07T04:27:56;20.30;62.30
10270;DHT22;70826;50.930;5.334;2024-01-07T04:30:24;20.20;62.20
10270;DHT22;70826;50.930;5.334;2024-01-07T04:32:52;20.30;62.30
10270;DHT22;70826;50.930;5.334;2024-01-07T04:35:18;20.20;62.20
10270;DHT22;70826;50.930;5.334;2024-01-07T04:37:44;20.20;62.30
10270;DHT22;70826;50.930;5.334;2024-01-07T04:40:10;20.20;62.20
10270;DHT22;70826;50.930;5.334;2024-01-07T04:42:42;20.20;62.20
10270;DHT22;70826;50.930;5.334;2024-01-07T04:45:10;20.30;62.30
10270;DHT22;70826;50.930;5.334;2024-01-07T04:47:36;20.20;62.20
10270;DHT22;70826;50.930;5.334;2024-01-07T04:50:03;20.20;62.20
10270;DHT22;70826;50.930;5.334;2024-01-07T04:52:31;20.20;62.20
10270;DHT22;70826;50.930;5.334;2024-01-07T04:54:56;20.20;62.20
10270;DHT22;70826;50.930;5.334;2024-01-07T04:57:27;20.20;62.20
10270;DHT22;70826;50.930;5.334;2024-01-07T04:59:55;20.20;62.20
10270;DHT22;70826;50.930;5.334;2024-01-07T05:02:20;20.20;62.20
10270;DHT22;70826;50.930;5.334;2024-01-07T05:04:46;20.20;62.20
10270;DHT22;70826;50.930;5.334;2024-01-07T05:07:12;20.20;62.20
10270;DHT22;70826;50.930;5.334;2024-01-07T05:09:37;20.20;62.20
10270;DHT22;70826;50.930;5.334;2024-01-07T05:12:07;20.20;62.30
10270;DHT22;70826;50.930;5.334;2024-01-07T05:14:33;20.20;62.20
10270;DHT22;70826;50.930;5.334;2024-01-07T05:16:59;20.20;62.30
10270;DHT22;70826;50.930;5.334;2024-01-07T05:19:26;20.20;62.30
10270;DHT22;70826;50.930;5.334;2024-01-07T05:21:53;20.20;62.30
10270;DHT22;70826;50.930;5.334;2024-01-07T05:24:19;20.20;62.90
10270;DHT22;70826;50.930;5.334;2024-01-07T05:26:47;20.20;62.30
10270;DHT22;70826;50.930;5.334;2024-01-07T05:29:12;20.20;62.30
10270;DHT22;70826;50.930;5.334;2024-01-07T05:31:42;20.20;62.30
10270;DHT22;70826;50.930;5.334;2024-01-07T05:34:11;20.20;62.20
10270;DHT22;70826;50.930;5.334;2024-01-07T05:36:39;20.20;62.30
10270;DHT22;70826;50.930;5.334;2024-01-07T05:39:09;20.20;62.30
10270;DHT22;70826;50.930;5.334;2024-01-07T05:41:39;20.20;62.30
10270;DHT22;70826;50.930;5.334;2024-01-07T05:44:06;20.20;62.30
10270;DHT22;70826;50.930;5.334;2024-01-07T05:46:38;20.20;62.30
10270;DHT22;70826;50.930;5.334;2024-01-07T05:49:05;20.20;62.30
10270;DHT22;70826;50.930;5.334;2024-01-07T05:51:37;20.20;62.30
10270;DHT22;70826;50.930;5.334;2024-01-07T05:54:08;20.20;62.20
10270;DHT22;70826;50.930;5.334;2024-01-07T05:56:41;20.20;62.20
10270;DHT22;70826;50.930;5.334;2024-01-07T05:59:10;20.20;62.20
10270;DHT22;70826;50.930;5.334;2024-01-07T06:01:38;20.20;62.20
10270;DHT22;70826;50.930;5.334;2024-01-07T06:04:06;20.20;62.20
10270;DHT22;70826;50.930;5.334;2024-01-07T06:06:34;20.20;62.20
10270;DHT22;70826;50.930;5.334;2024-01-07T06:09:02;20.20;62.30
10270;DHT22;70826;50.930;5.334;2024-01-07T06:11:29;20.20;62.20
10270;DHT22;70826;50.930;5.334;2024-01-07T06:13:59;20.20;62.20
10270;DHT22;70826;50.930;5.334;2024-01-07T06:16:27;20.20;62.20
10270;DHT22;70826;50.930;5.334;2024-01-07T06:18:55;20.20;62.20
10270;DHT22;70826;50.930;5.334;2024-01-07T06:21:23;20.20;62.20
10270;DHT22;70826;50.930;5.334;2024-01-07T06:23:48;20.20;62.20
10270;DHT22;70826;50.930;5.334;2024-01-07T06:26:16;20.20;62.20
10270;DHT22;70826;50.930;5.334;2024-01-07T06:28:44;20.20;62.20
10270;DHT22;70826;50.930;5.334;2024-01-07T06:31:12;20.20;62.20
10270;DHT22;70826;50.930;5.334;2024-01-07T06:33:38;20.20;62.20
10270;DHT22;70826;50.930;5.334;2024-01-07T06:36:04;20.20;62.20
10270;DHT22;70826;50.930;5.334;2024-01-07T06:38:29;20.20;62.10
10270;DHT22;70826;50.930;5.334;2024-01-07T06:41:02;20.20;62.20
10270;DHT22;70826;50.930;5.334;2024-01-07T06:43:31;20.20;62.10
10270;DHT22;70826;50.930;5.334;2024-01-07T06:46:02;20.20;62.10
10270;DHT22;70826;50.930;5.334;2024-01-07T06:48:27;20.20;62.20
10270;DHT22;70826;50.930;5.334;2024-01-07T06:50:55;20.20;62.10
10270;DHT22;70826;50.930;5.334;2024-01-07T06:53:23;20.20;62.10
10270;DHT22;70826;50.930;5.334;2024-01-07T06:55:49;20.20;62.10
10270;DHT22;70826;50.930;5.334;2024-01-07T06:58:17;20.20;62.10
10270;DHT22;70826;50.930;5.334;2024-01-07T07:00:44;20.20;62.10
10270;DHT22;70826;50.930;5.334;2024-01-07T07:03:12;20.20;62.10
10270;DHT22;70826;50.930;5.334;2024-01-07T07:05:38;20.20;62.10
10270;DHT22;70826;50.930;5.334;2024-01-07T07:08:06;20.20;62.10
10270;DHT22;70826;50.930;5.334;2024-01-07T07:10:32;20.20;62.10
10270;DHT22;70826;50.930;5.334;2024-01-07T07:12:59;20.20;62.10
10270;DHT22;70826;50.930;5.334;2024-01-07T07:15:30;20.20;62.10
10270;DHT22;70826;50.930;5.334;2024-01-07T07:17:58;20.20;62.00
10270;DHT22;70826;50.930;5.334;2024-01-07T07:20:24;20.20;62.10
10270;DHT22;70826;50.930;5.334;2024-01-07T07:22:52;20.20;62.10
10270;DHT22;70826;50.930;5.334;2024-01-07T07:25:19;20.20;62.10
10270;DHT22;70826;50.930;5.334;2024-01-07T07:27:48;20.20;62.00
10270;DHT22;70826;50.930;5.334;2024-01-07T07:30:13;20.20;62.10
10270;DHT22;70826;50.930;5.334;2024-01-07T07:32:40;20.20;62.00
10270;DHT22;70826;50.930;5.334;2024-01-07T07:35:12;20.20;62.00
10270;DHT22;70826;50.930;5.334;2024-01-07T07:37:37;20.20;62.00
10270;DHT22;70826;50.930;5.334;2024-01-07T07:40:03;20.20;62.00
10270;DHT22;70826;50.930;5.334;2024-01-07T07:42:34;20.20;62.00
10270;DHT22;70826;50.930;5.334;2024-01-07T07:45:03;20.20;62.00
10270;DHT22;70826;50.930;5.334;2024-01-07T07:47:28;20.20;62.00
10270;DHT22;70826;50.930;5.334;2024-01-07T07:49:58;20.20;62.00
10270;DHT22;70826;50.930;5.334;2024-01-07T07:52:24;20.20;61.90
10270;DHT22;70826;50.930;5.334;2024-01-07T07:54:53;20.20;61.90
10270;DHT22;70826;50.930;5.334;2024-01-07T07:57:20;20.20;62.00
10270;DHT22;70826;50.930;5.334;2024-01-07T07:59:51;20.20;61.90
10270;DHT22;70826;50.930;5.334;2024-01-07T08:02:17;20.20;62.00
10270;DHT22;70826;50.930;5.334;2024-01-07T08:04:45;20.20;61.90
10270;DHT22;70826;50.930;5.334;2024-01-07T08:07:13;20.20;62.00
10270;DHT22;70826;50.930;5.334;2024-01-07T08:09:41;20.20;62.00
10270;DHT22;70826;50.930;5.334;2024-01-07T08:12:11;20.20;62.00
10270;DHT22;70826;50.930;5.334;2024-01-07T08:14:39;20.20;61.90
10270;DHT22;70826;50.930;5.334;2024-01-07T08:17:13;20.20;61.90
10270;DHT22;70826;50.930;5.334;2024-01-07T08:19:39;20.20;61.90
10270;DHT22;70826;50.930;5.334;2024-01-07T08:22:07;20.20;61.90
10270;DHT22;70826;50.930;5.334;2024-01-07T08:24:34;20.20;61.90
10270;DHT22;70826;50.930;5.334;2024-01-07T08:27:03;20.20;61.90
10270;DHT22;70826;50.930;5.334;2024-01-07T08:29:31;20.20;61.90
10270;DHT22;70826;50.930;5.334;2024-01-07T08:32:00;20.20;62.00
10270;DHT22;70826;50.930;5.334;2024-01-07T08:34:28;20.20;61.90
10270;DHT22;70826;50.930;5.334;2024-01-07T08:36:54;20.20;61.90
10270;DHT22;70826;50.930;5.334;2024-01-07T08:39:22;20.20;61.90
10270;DHT22;70826;50.930;5.334;2024-01-07T08:41:51;20.20;61.90
10270;DHT22;70826;50.930;5.334;2024-01-07T08:44:19;20.20;61.90
10270;DHT22;70826;50.930;5.334;2024-01-07T08:46:47;20.20;61.90
10270;DHT22;70826;50.930;5.334;2024-01-07T08:49:13;20.20;61.90
10270;DHT22;70826;50.930;5.334;2024-01-07T08:51:45;20.20;61.90
10270;DHT22;70826;50.930;5.334;2024-01-07T08:54:15;20.20;61.80
10270;DHT22;70826;50.930;5.334;2024-01-07T08:56:44;20.20;61.80
10270;DHT22;70826;50.930;5.334;2024-01-07T08:59:10;20.20;61.90
10270;DHT22;70826;50.930;5.334;2024-01-07T09:01:36;20.20;61.90
10270;DHT22;70826;50.930;5.334;2024-01-07T09:04:01;20.20;61.80
10270;DHT22;70826;50.930;5.334;2024-01-07T09:06:32;20.20;61.80
10270;DHT22;70826;50.930;5.334;2024-01-07T09:08:57;20.20;61.80
10270;DHT22;70826;50.930;5.334;2024-01-07T09:11:28;20.20;61.80
10270;DHT22;70826;50.930;5.334;2024-01-07T09:13:56;20.20;61.80
10270;DHT22;70826;50.930;5.334;2024-01-07T09:16:21;20.20;61.80
10270;DHT22;70826;50.930;5.334;2024-01-07T09:18:52;20.20;61.80
10270;DHT22;70826;50.930;5.334;2024-01-07T09:21:22;20.20;61.70
10270;DHT22;70826;50.930;5.334;2024-01-07T09:23:55;20.20;61.70
10270;DHT22;70826;50.930;5.334;2024-01-07T09:26:21;20.10;62.00
10270;DHT22;70826;50.930;5.334;2024-01-07T09:28:46;20.10;62.30
10270;DHT22;70826;50.930;5.334;2024-01-07T09:31:12;20.10;62.40
10270;DHT22;70826;50.930;5.334;2024-01-07T09:33:40;20.10;62.50
10270;DHT22;70826;50.930;5.334;2024-01-07T09:36:11;20.20;62.50
10270;DHT22;70826;50.930;5.334;2024-01-07T09:38:36;20.30;62.60
10270;DHT22;70826;50.930;5.334;2024-01-07T09:41:02;20.40;62.60
10270;DHT22;70826;50.930;5.334;2024-01-07T09:43:28;20.50;62.70
10270;DHT22;70826;50.930;5.334;2024-01-07T09:45:58;20.50;62.70
10270;DHT22;70826;50.930;5.334;2024-01-07T09:48:25;20.60;62.80
10270;DHT22;70826;50.930;5.334;2024-01-07T09:50:52;20.70;62.80
10270;DHT22;70826;50.930;5.334;2024-01-07T09:53:20;20.80;62.80
10270;DHT22;70826;50.930;5.334;2024-01-07T09:56:24;20.80;62.80
10270;DHT22;70826;50.930;5.334;2024-01-07T09:58:52;20.90;62.80
10270;DHT22;70826;50.930;5.334;2024-01-07T10:01:20;21.00;62.80
10270;DHT22;70826;50.930;5.334;2024-01-07T10:03:48;20.90;63.00
10270;DHT22;70826;50.930;5.334;2024-01-07T10:06:18;20.80;63.00
10270;DHT22;70826;50.930;5.334;2024-01-07T10:08:46;20.90;63.00
10270;DHT22;70826;50.930;5.334;2024-01-07T10:11:16;21.00;63.00
10270;DHT22;70826;50.930;5.334;2024-01-07T10:13:47;21.00;62.90
10270;DHT22;70826;50.930;5.334;2024-01-07T10:16:23;21.10;62.90
10270;DHT22;70826;50.930;5.334;2024-01-07T10:18:51;21.10;63.00
10270;DHT22;70826;50.930;5.334;2024-01-07T10:21:17;21.10;63.00
10270;DHT22;70826;50.930;5.334;2024-01-07T10:23:42;21.10;63.10
10270;DHT22;70826;50.930;5.334;2024-01-07T10:26:09;21.10;63.10
10270;DHT22;70826;50.930;5.334;2024-01-07T10:28:34;21.10;63.00
10270;DHT22;70826;50.930;5.334;2024-01-07T10:31:05;21.10;63.00
10270;DHT22;70826;50.930;5.334;2024-01-07T10:33:33;21.10;63.00
10270;DHT22;70826;50.930;5.334;2024-01-07T10:36:06;21.20;63.70
10270;DHT22;70826;50.930;5.334;2024-01-07T10:38:37;21.20;63.10
10270;DHT22;70826;50.930;5.334;2024-01-07T10:41:05;21.20;63.00
10270;DHT22;70826;50.930;5.334;2024-01-07T10:43:36;21.20;63.00
10270;DHT22;70826;50.930;5.334;2024-01-07T10:46:10;21.20;62.90
10270;DHT22;70826;50.930;5.334;2024-01-07T10:48:42;21.30;62.90
10270;DHT22;70826;50.930;5.334;2024-01-07T10:51:14;21.30;62.80
10270;DHT22;70826;50.930;5.334;2024-01-07T10:53:42;21.40;62.70
10270;DHT22;70826;50.930;5.334;2024-01-07T10:56:11;21.40;62.50
10270;DHT22;70826;50.930;5.334;2024-01-07T10:58:39;21.40;62.30
10270;DHT22;70826;50.930;5.334;2024-01-07T11:01:07;21.50;62.20
10270;DHT22;70826;50.930;5.334;2024-01-07T11:09:03;21.40;61.80
10270;DHT22;70826;50.930;5.334;2024-01-07T11:11:39;21.40;61.70
10270;DHT22;70826;50.930;5.334;2024-01-07T11:17:00;21.40;61.50
10270;DHT22;70826;50.930;5.334;2024-01-07T11:19:26;21.40;61.50
10270;DHT22;70826;50.930;5.334;2024-01-07T11:22:21;21.40;61.40
10270;DHT22;70826;50.930;5.334;2024-01-07T11:24:48;21.40;61.30
10270;DHT22;70826;50.930;5.334;2024-01-07T11:27:18;21.40;61.20
10270;DHT22;70826;50.930;5.334;2024-01-07T11:29:53;21.30;61.10
10270;DHT22;70826;50.930;5.334;2024-01-07T11:32:24;21.30;61.10
10270;DHT22;70826;50.930;5.334;2024-01-07T11:34:54;21.30;61.10
10270;DHT22;70826;50.930;5.334;2024-01-07T11:37:24;21.20;61.00
10270;DHT22;70826;50.930;5.334;2024-01-07T11:39:55;21.20;61.00
10270;DHT22;70826;50.930;5.334;2024-01-07T11:42:23;21.20;61.00
10270;DHT22;70826;50.930;5.334;2024-01-07T11:44:57;21.20;61.10
10270;DHT22;70826;50.930;5.334;2024-01-07T11:47:24;21.10;61.00
10270;DHT22;70826;50.930;5.334;2024-01-07T11:49:55;21.10;60.90
10270;DHT22;70826;50.930;5.334;2024-01-07T11:52:21;21.10;60.90
10270;DHT22;70826;50.930;5.334;2024-01-07T11:54:49;21.10;60.90
10270;DHT22;70826;50.930;5.334;2024-01-07T11:57:15;21.10;60.90
10270;DHT22;70826;50.930;5.334;2024-01-07T11:59:43;21.00;60.80
10270;DHT22;70826;50.930;5.334;2024-01-07T12:02:08;21.00;60.80
10270;DHT22;70826;50.930;5.334;2024-01-07T12:04:34;21.00;60.80
10270;DHT22;70826;50.930;5.334;2024-01-07T12:07:00;21.00;60.80
10270;DHT22;70826;50.930;5.334;2024-01-07T12:09:26;21.00;60.80
10270;DHT22;70826;50.930;5.334;2024-01-07T12:11:52;20.90;60.70
10270;DHT22;70826;50.930;5.334;2024-01-07T12:14:18;20.90;60.70
10270;DHT22;70826;50.930;5.334;2024-01-07T12:16:47;20.90;60.70
10270;DHT22;70826;50.930;5.334;2024-01-07T12:19:16;20.90;60.70
10270;DHT22;70826;50.930;5.334;2024-01-07T12:21:42;20.90;60.70
10270;DHT22;70826;50.930;5.334;2024-01-07T12:24:07;20.90;60.80
10270;DHT22;70826;50.930;5.334;2024-01-07T12:26:33;20.80;60.70
10270;DHT22;70826;50.930;5.334;2024-01-07T12:29:00;20.80;60.70
10270;DHT22;70826;50.930;5.334;2024-01-07T12:31:32;20.80;60.70
10270;DHT22;70826;50.930;5.334;2024-01-07T12:33:59;20.80;60.70
10270;DHT22;70826;50.930;5.334;2024-01-07T12:36:25;20.80;60.70
10270;DHT22;70826;50.930;5.334;2024-01-07T12:38:52;20.80;60.70
10270;DHT22;70826;50.930;5.334;2024-01-07T12:41:20;20.70;60.70
10270;DHT22;70826;50.930;5.334;2024-01-07T12:43:46;20.70;60.70
10270;DHT22;70826;50.930;5.334;2024-01-07T12:46:11;20.70;60.70
10270;DHT22;70826;50.930;5.334;2024-01-07T12:48:37;20.70;60.70
10270;DHT22;70826;50.930;5.334;2024-01-07T12:51:03;20.70;60.70
10270;DHT22;70826;50.930;5.334;2024-01-07T12:53:31;20.70;60.70
10270;DHT22;70826;50.930;5.334;2024-01-07T12:55:57;20.70;60.80
10270;DHT22;70826;50.930;5.334;2024-01-07T12:58:22;20.70;60.80
10270;DHT22;70826;50.930;5.334;2024-01-07T13:00:50;20.70;60.80
10270;DHT22;70826;50.930;5.334;2024-01-07T13:03:16;20.70;60.70
10270;DHT22;70826;50.930;5.334;2024-01-07T13:05:47;20.60;60.70
10270;DHT22;70826;50.930;5.334;2024-01-07T13:08:16;20.60;60.60
10270;DHT22;70826;50.930;5.334;2024-01-07T13:10:47;20.60;60.60
10270;DHT22;70826;50.930;5.334;2024-01-07T13:13:13;20.60;60.60
10270;DHT22;70826;50.930;5.334;2024-01-07T13:15:39;20.60;60.60
10270;DHT22;70826;50.930;5.334;2024-01-07T13:18:06;20.60;60.60
10270;DHT22;70826;50.930;5.334;2024-01-07T13:20:34;20.60;60.60
10270;DHT22;70826;50.930;5.334;2024-01-07T13:23:05;20.60;60.60
10270;DHT22;70826;50.930;5.334;2024-01-07T13:25:31;20.60;60.60
10270;DHT22;70826;50.930;5.334;2024-01-07T13:27:59;20.60;60.60
10270;DHT22;70826;50.930;5.334;2024-01-07T13:30:25;20.60;60.70
10270;DHT22;70826;50.930;5.334;2024-01-07T13:32:50;20.50;60.60
10270;DHT22;70826;50.930;5.334;2024-01-07T13:35:21;20.60;60.60
10270;DHT22;70826;50.930;5.334;2024-01-07T13:37:46;20.50;60.60
10270;DHT22;70826;50.930;5.334;2024-01-07T13:40:12;20.50;60.50
10270;DHT22;70826;50.930;5.334;2024-01-07T13:42:39;20.50;60.50
10270;DHT22;70826;50.930;5.334;2024-01-07T13:45:07;20.50;60.60
10270;DHT22;70826;50.930;5.334;2024-01-07T13:47:33;20.50;60.50
10270;DHT22;70826;50.930;5.334;2024-01-07T13:50:01;20.50;60.60
10270;DHT22;70826;50.930;5.334;2024-01-07T13:52:27;20.50;60.60
10270;DHT22;70826;50.930;5.334;2024-01-07T13:54:59;20.50;60.60
10270;DHT22;70826;50.930;5.334;2024-01-07T13:57:28;20.50;60.60
10270;DHT22;70826;50.930;5.334;2024-01-07T13:59:58;20.50;60.50
10270;DHT22;70826;50.930;5.334;2024-01-07T14:02:31;20.50;60.50
10270;DHT22;70826;50.930;5.334;2024-01-07T14:04:56;20.50;60.50
10270;DHT22;70826;50.930;5.334;2024-01-07T14:07:27;20.50;60.50
10270;DHT22;70826;50.930;5.334;2024-01-07T14:09:52;20.50;60.50
10270;DHT22;70826;50.930;5.334;2024-01-07T14:12:18;20.50;60.50
10270;DHT22;70826;50.930;5.334;2024-01-07T14:14:44;20.50;60.60
10270;DHT22;70826;50.930;5.334;2024-01-07T14:17:11;20.50;60.50
10270;DHT22;70826;50.930;5.334;2024-01-07T14:19:40;20.50;60.50
10270;DHT22;70826;50.930;5.334;2024-01-07T14:22:10;20.50;60.50
10270;DHT22;70826;50.930;5.334;2024-01-07T14:24:38;20.50;60.40
10270;DHT22;70826;50.930;5.334;2024-01-07T14:27:04;20.50;60.50
10270;DHT22;70826;50.930;5.334;2024-01-07T14:29:29;20.50;60.50
10270;DHT22;70826;50.930;5.334;2024-01-07T14:32:00;20.50;60.40
10270;DHT22;70826;50.930;5.334;2024-01-07T14:34:27;20.50;60.30
10270;DHT22;70826;50.930;5.334;2024-01-07T14:36:53;20.40;60.30
10270;DHT22;70826;50.930;5.334;2024-01-07T14:39:19;20.40;60.30
10270;DHT22;70826;50.930;5.334;2024-01-07T14:41:47;20.40;60.30
10270;DHT22;70826;50.930;5.334;2024-01-07T14:44:17;20.40;60.30
10270;DHT22;70826;50.930;5.334;2024-01-07T14:46:45;20.40;60.30
10270;DHT22;70826;50.930;5.334;2024-01-07T14:49:11;20.40;60.30
10270;DHT22;70826;50.930;5.334;2024-01-07T14:51:41;20.40;60.30
10270;DHT22;70826;50.930;5.334;2024-01-07T14:54:06;20.40;60.30
10270;DHT22;70826;50.930;5.334;2024-01-07T14:56:34;20.40;60.30
10270;DHT22;70826;50.930;5.334;2024-01-07T14:59:01;20.40;60.30
10270;DHT22;70826;50.930;5.334;2024-01-07T15:01:28;20.50;60.40
10270;DHT22;70826;50.930;5.334;2024-01-07T15:03:54;20.40;60.30
10270;DHT22;70826;50.930;5.334;2024-01-07T15:06:22;20.40;60.30
10270;DHT22;70826;50.930;5.334;2024-01-07T15:08:52;20.40;60.30
10270;DHT22;70826;50.930;5.334;2024-01-07T15:11:21;20.40;60.30
10270;DHT22;70826;50.930;5.334;2024-01-07T15:13:52;20.40;60.30
10270;DHT22;70826;50.930;5.334;2024-01-07T15:16:22;20.40;60.20
10270;DHT22;70826;50.930;5.334;2024-01-07T15:18:50;20.40;60.20
10270;DHT22;70826;50.930;5.334;2024-01-07T15:21:18;20.40;60.20
10270;DHT22;70826;50.930;5.334;2024-01-07T15:23:46;20.40;60.10
10270;DHT22;70826;50.930;5.334;2024-01-07T15:26:11;20.40;60.10
10270;DHT22;70826;50.930;5.334;2024-01-07T15:28:40;20.40;60.10
10270;DHT22;70826;50.930;5.334;2024-01-07T15:31:10;20.40;60.10
10270;DHT22;70826;50.930;5.334;2024-01-07T15:33:38;20.40;60.00
10270;DHT22;70826;50.930;5.334;2024-01-07T15:36:07;20.40;60.00
10270;DHT22;70826;50.930;5.334;2024-01-07T15:38:33;20.40;59.90
10270;DHT22;70826;50.930;5.334;2024-01-07T15:41:03;20.40;59.90
10270;DHT22;70826;50.930;5.334;2024-01-07T15:43:31;20.40;59.90